Sioux Arrow — WAG6168 — position and weather

sailwx.info

Track history (hours):
 
Tides and Currents Weather Stations Pressure Air Temp Water Temp Dewpoint Dewpoint Depression Visibility Wind Speed Wind Dir Waves Ship Positions

Sioux Arrow

Owner: HARMON, JACK L, PORT ANGELES, WA. More information available from US FCC via Universal Licensing System and Coast Guard Vessel Documentation Center.

Last reported at 2016-May-20 22:33 UTC. Time now 2016-May-26 00:45 UTC.
Position N 48°07' W 123°26'.

Type: Port tender. MMSI: 366973370.

Date/timePositionNaut miles runAvg speedWind from/ knotsBaromVisibWave heightAir tempDewpointWater temp
2016-May-20 22:33N 48°07' W 123°26'9 9.0
2016-May-20 21:31N 48°13' W 123°15'1210.2
2016-May-20 20:17N 48°21' W 123°00'810.2
2016-May-20 19:33N 48°24' W 122°50'1110.8
2016-May-20 18:34N 48°31' W 122°38'1 1.2
2016-May-20 17:34N 48°31' W 122°36'6 5.7
2016-May-20 16:33N 48°36' W 122°33'5 4.9
2016-May-20 15:34N 48°31' W 122°35'4 0.6
2016-May-20 09:33N 48°35' W 122°34'4 3.8
2016-May-20 08:33N 48°31' W 122°35'1 0.3
2016-May-20 04:33N 48°31' W 122°36'5 5.4
2016-May-20 03:33N 48°35' W 122°33'5 5.4
2016-May-20 02:33N 48°31' W 122°36'0 0.0
2016-May-20 01:33N 48°31' W 122°36'0 0.0
2016-May-20 00:34N 48°31' W 122°36'1 0.9
2016-May-19 23:33N 48°31' W 122°35'1 0.9
2016-May-19 22:33N 48°31' W 122°37'5 4.8
2016-May-19 21:33N 48°35' W 122°34'2 1.6
2016-May-19 20:33N 48°34' W 122°34'3 3.3
2016-May-19 19:33N 48°31' W 122°37'1 0.6
2016-May-19 18:33N 48°31' W 122°36'1 1.5
2016-May-19 17:33N 48°32' W 122°34'2 2.0
2016-May-19 16:33N 48°31' W 122°36'2 2.3
2016-May-19 15:33N 48°32' W 122°34'2 2.3
2016-May-19 14:33N 48°31' W 122°36'0 0.0
2016-May-19 13:33N 48°31' W 122°36'0 0.0
2016-May-19 12:33N 48°31' W 122°36'0 0.0
2016-May-19 11:33N 48°31' W 122°36'6 5.9
2016-May-19 10:33N 48°36' W 122°34'5 5.2
2016-May-19 09:33N 48°31' W 122°34'1 1.4
2016-May-19 08:33N 48°31' W 122°36'1 1.5
2016-May-19 07:33N 48°31' W 122°34'3 3.1
2016-May-19 06:33N 48°34' W 122°34'4 3.6
2016-May-19 05:33N 48°31' W 122°36'1 0.6
2016-May-19 04:33N 48°31' W 122°36'0 0.0
2016-May-19 03:33N 48°31' W 122°36'4 3.8
2016-May-19 02:33N 48°34' W 122°34'4 3.9
2016-May-19 01:33N 48°31' W 122°36'0 0.0
2016-May-19 00:33N 48°31' W 122°36'0 0.0
2016-May-18 23:33N 48°31' W 122°36'0 0.0
2016-May-18 22:33N 48°31' W 122°36'0 0.0
2016-May-18 21:33N 48°31' W 122°36'0 0.0
2016-May-18 20:33N 48°31' W 122°37'2 1.8
2016-May-18 19:33N 48°32' W 122°34'2 1.8
2016-May-18 18:34N 48°31' W 122°36'0 0.0
2016-May-18 17:33N 48°31' W 122°36'0 0.0
2016-May-18 16:33N 48°31' W 122°36'4 3.9
2016-May-18 15:33N 48°34' W 122°34'4 3.9
2016-May-18 14:33N 48°31' W 122°36'0 0.0
2016-May-18 01:33N 48°31' W 122°37'6 5.5
2016-May-18 00:33N 48°35' W 122°32'6 5.5
2016-May-17 23:33N 48°31' W 122°36'0 0.1
2016-May-17 22:33N 48°31' W 122°37'3 3.2
2016-May-17 21:33N 48°33' W 122°34'1 0.5
2016-May-17 20:33N 48°34' W 122°34'4 3.7
2016-May-17 19:33N 48°31' W 122°36'0 0.0
2016-May-17 18:33N 48°31' W 122°36'0 0.0
2016-May-17 17:33N 48°31' W 122°36'0 0.0
2016-May-17 16:33N 48°31' W 122°36'0 0.0
2016-May-17 15:33N 48°31' W 122°36'0 0.0
2016-May-17 14:33N 48°31' W 122°36'0 0.0
2016-May-17 13:33N 48°31' W 122°36'2 2.3
2016-May-17 12:33N 48°33' W 122°34'2 0.3
2016-May-17 04:17N 48°31' W 122°36'7 8.9
2016-May-17 03:34N 48°37' W 122°34'7 6.5
2016-May-17 02:33N 48°31' W 122°36'0 0.0
2016-May-17 01:34N 48°31' W 122°36'0 0.1
2016-May-17 00:34N 48°31' W 122°36'0 0.1
2016-May-16 23:33N 48°31' W 122°37'0 0.1
2016-May-16 22:34N 48°31' W 122°36'7 6.7
2016-May-16 21:34N 48°37' W 122°34'6 5.9
2016-May-16 20:33N 48°31' W 122°35'2 1.9
2016-May-16 19:34N 48°33' W 122°34'2 1.5
2016-May-16 18:33N 48°32' W 122°34'2 1.6
2016-May-16 17:33N 48°31' W 122°36'0 0.1
2016-May-16 16:33N 48°31' W 122°36'0 0.1
2016-May-16 15:33N 48°31' W 122°36'2 2.0
2016-May-16 14:33N 48°32' W 122°34'0 0.2
2016-May-16 13:33N 48°32' W 122°34'2 0.7
2016-May-16 10:27N 48°31' W 122°36'4 4.1
2016-May-16 09:33N 48°34' W 122°34'  
2016-May-13 04:33N 48°31' W 122°36'7 6.6
2016-May-13 03:33N 48°37' W 122°34'7 1.9
2016-May-13 00:08N 48°31' W 122°36'5 9.2
2016-May-12 23:33N 48°35' W 122°33'5 5.2
2016-May-12 22:34N 48°31' W 122°36'0 0.0
2016-May-12 21:34N 48°31' W 122°36'5 4.7
2016-May-12 20:33N 48°35' W 122°34'5 4.7
2016-May-12 19:33N 48°31' W 122°36'2 0.5
2016-May-12 15:33N 48°32' W 122°34'1 1.0
2016-May-12 14:33N 48°31' W 122°35'1 0.1
2016-May-11 23:34N 48°31' W 122°36'0 0.0
2016-May-11 22:34N 48°31' W 122°36'0 0.0
2016-May-11 21:34N 48°31' W 122°36'0 0.0
2016-May-11 20:34N 48°31' W 122°36'0 0.0
2016-May-11 19:34N 48°31' W 122°36'0 0.0
2016-May-11 18:34N 48°31' W 122°36'0 0.0
2016-May-11 17:34N 48°31' W 122°36'1 0.8
2016-May-11 16:34N 48°30' W 122°36'1 0.8
2016-May-11 15:33N 48°31' W 122°36'6 5.8
2016-May-11 14:33N 48°36' W 122°34'4 0.3
2016-May-11 01:33N 48°32' W 122°34'0 0.5
2016-May-11 00:33N 48°32' W 122°34'2 2.0
2016-May-10 23:33N 48°31' W 122°36'0 0.0
2016-May-10 22:33N 48°31' W 122°36'  
Track history (hours):
 
Tides and Currents Weather Stations Pressure Air Temp Water Temp Dewpoint Dewpoint Depression Visibility Wind Speed Wind Dir Waves Ship Positions

Sioux Arrow

Owner: HARMON, JACK L, PORT ANGELES, WA. More information available from US FCC via Universal Licensing System and Coast Guard Vessel Documentation Center.

Last reported at 2016-May-20 22:33 UTC. Time now 2016-May-26 00:45 UTC.
Position N 48°07' W 123°26'.

Type: Port tender. MMSI: 366973370.

Date/timePositionNaut miles runAvg speedWind from/ knotsBaromVisibWave heightAir tempDewpointWater temp
2016-May-20 22:33N 48°07' W 123°26'9 9.0
2016-May-20 21:31N 48°13' W 123°15'1210.2
2016-May-20 20:17N 48°21' W 123°00'810.2
2016-May-20 19:33N 48°24' W 122°50'1110.8
2016-May-20 18:34N 48°31' W 122°38'1 1.2
2016-May-20 17:34N 48°31' W 122°36'6 5.7
2016-May-20 16:33N 48°36' W 122°33'5 4.9
2016-May-20 15:34N 48°31' W 122°35'4 0.6
2016-May-20 09:33N 48°35' W 122°34'4 3.8
2016-May-20 08:33N 48°31' W 122°35'1 0.3
2016-May-20 04:33N 48°31' W 122°36'5 5.4
2016-May-20 03:33N 48°35' W 122°33'5 5.4
2016-May-20 02:33N 48°31' W 122°36'0 0.0
2016-May-20 01:33N 48°31' W 122°36'0 0.0
2016-May-20 00:34N 48°31' W 122°36'1 0.9
2016-May-19 23:33N 48°31' W 122°35'1 0.9
2016-May-19 22:33N 48°31' W 122°37'5 4.8
2016-May-19 21:33N 48°35' W 122°34'2 1.6
2016-May-19 20:33N 48°34' W 122°34'3 3.3
2016-May-19 19:33N 48°31' W 122°37'1 0.6
2016-May-19 18:33N 48°31' W 122°36'1 1.5
2016-May-19 17:33N 48°32' W 122°34'2 2.0
2016-May-19 16:33N 48°31' W 122°36'2 2.3
2016-May-19 15:33N 48°32' W 122°34'2 2.3
2016-May-19 14:33N 48°31' W 122°36'0 0.0
2016-May-19 13:33N 48°31' W 122°36'0 0.0
2016-May-19 12:33N 48°31' W 122°36'0 0.0
2016-May-19 11:33N 48°31' W 122°36'6 5.9
2016-May-19 10:33N 48°36' W 122°34'5 5.2
2016-May-19 09:33N 48°31' W 122°34'1 1.4
2016-May-19 08:33N 48°31' W 122°36'1 1.5
2016-May-19 07:33N 48°31' W 122°34'3 3.1
2016-May-19 06:33N 48°34' W 122°34'4 3.6
2016-May-19 05:33N 48°31' W 122°36'1 0.6
2016-May-19 04:33N 48°31' W 122°36'0 0.0
2016-May-19 03:33N 48°31' W 122°36'4 3.8
2016-May-19 02:33N 48°34' W 122°34'4 3.9
2016-May-19 01:33N 48°31' W 122°36'0 0.0
2016-May-19 00:33N 48°31' W 122°36'0 0.0
2016-May-18 23:33N 48°31' W 122°36'0 0.0
2016-May-18 22:33N 48°31' W 122°36'0 0.0
2016-May-18 21:33N 48°31' W 122°36'0 0.0
2016-May-18 20:33N 48°31' W 122°37'2 1.8
2016-May-18 19:33N 48°32' W 122°34'2 1.8
2016-May-18 18:34N 48°31' W 122°36'0 0.0
2016-May-18 17:33N 48°31' W 122°36'0 0.0
2016-May-18 16:33N 48°31' W 122°36'4 3.9
2016-May-18 15:33N 48°34' W 122°34'4 3.9
2016-May-18 14:33N 48°31' W 122°36'0 0.0
2016-May-18 01:33N 48°31' W 122°37'6 5.5
2016-May-18 00:33N 48°35' W 122°32'6 5.5
2016-May-17 23:33N 48°31' W 122°36'0 0.1
2016-May-17 22:33N 48°31' W 122°37'3 3.2
2016-May-17 21:33N 48°33' W 122°34'1 0.5
2016-May-17 20:33N 48°34' W 122°34'4 3.7
2016-May-17 19:33N 48°31' W 122°36'0 0.0
2016-May-17 18:33N 48°31' W 122°36'0 0.0
2016-May-17 17:33N 48°31' W 122°36'0 0.0
2016-May-17 16:33N 48°31' W 122°36'0 0.0
2016-May-17 15:33N 48°31' W 122°36'0 0.0
2016-May-17 14:33N 48°31' W 122°36'0 0.0
2016-May-17 13:33N 48°31' W 122°36'2 2.3
2016-May-17 12:33N 48°33' W 122°34'2 0.3
2016-May-17 04:17N 48°31' W 122°36'7 8.9
2016-May-17 03:34N 48°37' W 122°34'7 6.5
2016-May-17 02:33N 48°31' W 122°36'0 0.0
2016-May-17 01:34N 48°31' W 122°36'0 0.1
2016-May-17 00:34N 48°31' W 122°36'0 0.1
2016-May-16 23:33N 48°31' W 122°37'0 0.1
2016-May-16 22:34N 48°31' W 122°36'7 6.7
2016-May-16 21:34N 48°37' W 122°34'6 5.9
2016-May-16 20:33N 48°31' W 122°35'2 1.9
2016-May-16 19:34N 48°33' W 122°34'2 1.5
2016-May-16 18:33N 48°32' W 122°34'2 1.6
2016-May-16 17:33N 48°31' W 122°36'0 0.1
2016-May-16 16:33N 48°31' W 122°36'0 0.1
2016-May-16 15:33N 48°31' W 122°36'2 2.0
2016-May-16 14:33N 48°32' W 122°34'0 0.2
2016-May-16 13:33N 48°32' W 122°34'2 0.7
2016-May-16 10:27N 48°31' W 122°36'4 4.1
2016-May-16 09:33N 48°34' W 122°34'  
2016-May-13 04:33N 48°31' W 122°36'7 6.6
2016-May-13 03:33N 48°37' W 122°34'7 1.9
2016-May-13 00:08N 48°31' W 122°36'5 9.2
2016-May-12 23:33N 48°35' W 122°33'5 5.2
2016-May-12 22:34N 48°31' W 122°36'0 0.0
2016-May-12 21:34N 48°31' W 122°36'5 4.7
2016-May-12 20:33N 48°35' W 122°34'5 4.7
2016-May-12 19:33N 48°31' W 122°36'2 0.5
2016-May-12 15:33N 48°32' W 122°34'1 1.0
2016-May-12 14:33N 48°31' W 122°35'1 0.1
2016-May-11 23:34N 48°31' W 122°36'0 0.0
2016-May-11 22:34N 48°31' W 122°36'0 0.0
2016-May-11 21:34N 48°31' W 122°36'0 0.0
2016-May-11 20:34N 48°31' W 122°36'0 0.0
2016-May-11 19:34N 48°31' W 122°36'0 0.0
2016-May-11 18:34N 48°31' W 122°36'0 0.0
2016-May-11 17:34N 48°31' W 122°36'1 0.8
2016-May-11 16:34N 48°30' W 122°36'1 0.8
2016-May-11 15:33N 48°31' W 122°36'6 5.8
2016-May-11 14:33N 48°36' W 122°34'4 0.3
2016-May-11 01:33N 48°32' W 122°34'0 0.5
2016-May-11 00:33N 48°32' W 122°34'2 2.0
2016-May-10 23:33N 48°31' W 122°36'0 0.0
2016-May-10 22:33N 48°31' W 122°36'  

Dump ship's entire track history